TimeCST,TemperatureF,Dew PointF,Humidity,Sea Level PressureIn,VisibilityMPH,Wind Direction,Wind SpeedMPH,Gust SpeedMPH,PrecipitationIn,Events,Conditions,WindDirDegrees,DateUTC
12:53 AM,-2.0,-11.0,66,30.73,10.0,East,4.6,-,N/A,,Clear,90,2013-12-07 06:53:00
1:53 AM,-4.0,-11.9,69,30.71,10.0,East,4.6,-,N/A,,Clear,80,2013-12-07 07:53:00
2:53 AM,-2.9,-11.0,68,30.70,10.0,East,4.6,-,N/A,,Clear,80,2013-12-07 08:53:00
3:53 AM,-2.0,-9.9,69,30.70,10.0,East,4.6,-,N/A,,Clear,80,2013-12-07 09:53:00
4:53 AM,-0.9,-9.0,69,30.68,10.0,East,4.6,-,N/A,,Clear,90,2013-12-07 10:53:00
5:53 AM,-0.0,-7.1,72,30.68,10.0,ESE,9.2,-,N/A,,Clear,120,2013-12-07 11:53:00
6:53 AM,-0.0,-8.0,69,30.68,10.0,ESE,11.5,-,N/A,,Clear,120,2013-12-07 12:53:00
7:53 AM,1.0,-7.1,69,30.70,10.0,SE,9.2,-,N/A,,Scattered Clouds,130,2013-12-07 13:53:00
8:53 AM,1.9,-7.1,66,30.69,10.0,ESE,12.7,-,N/A,,Mostly Cloudy,120,2013-12-07 14:53:00
9:53 AM,1.9,-7.1,66,30.70,10.0,SE,12.7,-,N/A,,Overcast,140,2013-12-07 15:53:00
10:53 AM,3.9,-6.0,64,30.67,10.0,SE,11.5,-,N/A,,Overcast,140,2013-12-07 16:53:00
11:53 AM,6.1,-6.0,58,30.64,10.0,SE,13.8,-,N/A,,Overcast,130,2013-12-07 17:53:00
12:53 PM,7.0,-6.0,55,30.58,10.0,SE,13.8,-,N/A,,Overcast,140,2013-12-07 18:53:00
1:53 PM,8.1,-7.1,50,30.52,9.0,SE,16.1,-,N/A,,Overcast,130,2013-12-07 19:53:00
2:53 PM,9.0,-7.1,48,30.48,10.0,SSE,16.1,-,N/A,,Overcast,150,2013-12-07 20:53:00
3:53 PM,9.0,-6.0,51,30.43,10.0,SE,16.1,-,N/A,,Overcast,130,2013-12-07 21:53:00
4:53 PM,9.0,-6.0,51,30.43,10.0,SE,11.5,-,N/A,,Overcast,130,2013-12-07 22:53:00
5:53 PM,10.0,-4.0,53,30.40,9.0,ESE,15.0,-,N/A,,Overcast,120,2013-12-07 23:53:00
6:53 PM,9.0,-0.0,67,30.39,4.0,ESE,15.0,-,0.00,Snow,Light Snow,120,2013-12-08 00:53:00
7:08 PM,8.6,1.4,73,30.21,2.0,SE,17.3,-,0.00,Snow,Light Snow,130,2013-12-08 01:08:00
7:16 PM,8.6,1.4,73,30.21,2.0,ESE,12.7,-,0.00,Snow,Light Snow,120,2013-12-08 01:16:00
7:37 PM,8.6,3.2,79,30.21,2.0,ESE,11.5,-,0.00,Snow,Light Snow,120,2013-12-08 01:37:00
7:53 PM,8.1,3.0,80,30.38,2.5,ESE,11.5,21.9,0.00,Snow,Light Snow,110,2013-12-08 01:53:00
8:06 PM,8.6,3.2,79,30.20,1.8,ESE,12.7,-,0.00,Snow,Light Snow,110,2013-12-08 02:06:00
8:53 PM,8.1,3.0,80,30.36,1.5,East,12.7,-,0.00,Snow,Light Snow,100,2013-12-08 02:53:00
9:53 PM,8.1,3.0,80,30.35,1.8,ESE,12.7,-,0.00,Snow,Light Snow,110,2013-12-08 03:53:00
10:53 PM,8.1,3.9,83,30.31,1.5,ESE,12.7,-,0.00,Snow,Light Snow,110,2013-12-08 04:53:00
11:21 PM,8.6,3.2,79,30.13,1.8,ESE,12.7,-,0.00,Snow,Light Snow,110,2013-12-08 05:21:00
11:33 PM,8.6,3.2,79,30.13,2.5,ESE,16.1,-,0.00,Snow,Light Snow,110,2013-12-08 05:33:00
11:45 PM,8.6,3.2,79,30.12,3.0,ESE,13.8,-,0.00,Snow,Light Snow,110,2013-12-08 05:45:00
11:53 PM,8.1,3.0,80,30.28,4.0,ESE,15.0,-,0.00,Snow,Light Snow,110,2013-12-08 05:53:00